Airfield :
LOGIN :

Register | Disclaimer

   EN    FR    IT 

 










Legend :    VFR   Marginal VFR   IFR   Intensive IFR   Very Intensive IFR
Visi :
Ceiling :
>= 8 km
>= 3000ft
5 to 8 km
1000 to 3000 ft
1500m to 5 km
500 to 1000 ft
800 to 1500m
200 to 500 ft
< 800m
< 200 ft
Symbols :   Thunderstorms  Fog  Heavy snow  Heavy precipitations  Wind > 20 kt
SIGMETs :     Misc.  Thunderstorms  Icing  Turbulence  Mountain Waves  Volcanic Ashes






- Airport Elevation : 1017 ft


LFSL - Brive Souillac

CURRENT METAR :
  • 150530Z AUTO 24005KT 170V300 7000 -RA OVC007 11/11 Q1011 NOSIG

EXPIRED METARs :
  • 150500Z AUTO 23005KT 170V310 9999 -RA BKN009/// BKN014/// OVC023/// ///TCU 11/11 Q1011 TEMPO RA BKN005 BKN015
  • 150430Z AUTO 25004KT 180V310 9999 -RA BKN009/// BKN021/// BKN033/// ///CB 11/11 Q1011 TEMPO RA BKN005 BKN015
  • 150400Z AUTO VRB03KT 9999 -RA BKN009/// BKN039/// BKN058/// ///TCU 12/12 Q1010 TEMPO RA BKN005 BKN015
  • 150330Z AUTO VRB03KT 9999 -RA SCT014/// SCT031/// BKN050/// ///TCU 12/12 Q1010 TEMPO RA BKN005 BKN015
  • 150300Z AUTO VRB03KT 9999 -RA SCT007 BKN054 BKN070 12/12 Q1010 TEMPO RA BKN005 BKN015

TAF TAF LFSL
Valid from the 15 at 06:00 until the 15 at 15:00 UTC


150500Z 1506/1515 26006KT 9999 -RA BKN009 BKN015
BECMG 1509/1511 NSW SCT025TCU
PROB40
TEMPO 1511/1514 4000 SHRA BKN030TCU



MET'MAP, your aeronautical weather chart ! - Copyright ORBIFLY December 2007 - Disclaimer

ORBIFLY MET'MAP TEAM :

Programming & Development : Alexandra Zaïnal
Concept & Development : Baudouin d'Aumeries
Co-Development & Prog : Marc-Olivier Méhu
Technical & hardware support : Manuel Goepfert

Contact : metmap@orbifly.com




SOURCES & CREDITS :

   NOAA